Time;durP1;ratioP1;P1;durP2;ratioP2;P2;SDS_P1;SDS_P2;PMS_P1;PMS_P2;Temp;Humidity;BMP_temperature;BMP_pressure;BME280_temperature;BME280_humidity;BME280_pressure;Samples;Min_cycle;Max_cycle;Signal;HPM_P1;HPM_P2
2023/04/08 00:00:11;;;;;;;18.65;12.73;;;;;;;8.69;76.58;100338.84;5101668;28;20114;-41
2023/04/08 00:02:37;;;;;;;19.63;12.93;;;;;;;8.82;76.31;100335.41;5108517;28;20032;-41
2023/04/08 00:05:02;;;;;;;19.73;13.70;;;;;;;8.70;77.56;100343.13;5108605;28;20034;-40
2023/04/08 00:07:28;;;;;;;18.58;12.90;;;;;;;8.64;78.81;100335.97;5109079;28;20680;-41
2023/04/08 00:09:53;;;;;;;20.30;14.07;;;;;;;8.66;79.15;100339.25;5108961;28;20870;-40
2023/04/08 00:12:19;;;;;;;19.77;14.10;;;;;;;8.73;79.32;100347.25;5109211;28;20024;-41
2023/04/08 00:14:45;;;;;;;20.75;13.93;;;;;;;8.80;78.46;100343.56;5109227;28;20020;-40
2023/04/08 00:17:10;;;;;;;20.80;14.75;;;;;;;8.67;80.62;100353.38;5109314;28;20035;-42
2023/04/08 00:19:35;;;;;;;22.90;14.98;;;;;;;8.45;82.09;100340.19;5108667;28;20067;-40
2023/04/08 00:22:01;;;;;;;21.67;15.13;;;;;;;8.32;84.16;100348.09;5109435;28;20104;-40
2023/04/08 00:24:26;;;;;;;21.00;15.00;;;;;;;8.25;84.82;100356.00;5109459;28;20032;-40
2023/04/08 00:26:52;;;;;;;20.42;14.88;;;;;;;8.31;85.14;100355.22;5108436;28;20088;-40
2023/04/08 00:29:17;;;;;;;20.90;14.10;;;;;;;8.30;84.91;100358.91;5109181;28;20032;-41
2023/04/08 00:31:42;;;;;;;19.17;13.63;;;;;;;8.38;84.73;100348.13;5108804;28;20027;-41
2023/04/08 00:34:08;;;;;;;22.85;15.90;;;;;;;8.43;84.29;100348.34;5108847;28;20024;-40
2023/04/08 00:36:35;;;;;;;22.50;14.35;;;;;;;8.30;85.06;100353.59;5108710;28;20028;-41
2023/04/08 00:39:00;;;;;;;24.45;15.50;;;;;;;8.38;85.24;100345.44;5108160;27;20646;-41
2023/04/08 00:41:26;;;;;;;20.77;15.07;;;;;;;8.39;85.23;100344.41;5108773;28;20518;-43
2023/04/08 00:43:51;;;;;;;24.75;14.90;;;;;;;8.36;86.07;100350.16;5108885;28;20095;-40
2023/04/08 00:46:17;;;;;;;23.83;14.30;;;;;;;8.11;86.71;100346.31;5108457;28;20024;-41
2023/04/08 00:48:43;;;;;;;21.00;14.57;;;;;;;7.88;88.70;100344.75;5108739;28;20027;-40
2023/04/08 00:51:08;;;;;;;23.50;15.00;;;;;;;7.94;89.72;100359.09;5109378;28;20078;-41
2023/04/08 00:53:34;;;;;;;22.92;15.20;;;;;;;7.83;90.49;100365.78;5108610;28;20044;-39
2023/04/08 00:56:00;;;;;;;23.40;14.73;;;;;;;7.80;91.76;100364.28;5108231;28;20043;-40
2023/04/08 00:58:28;;;;;;;22.63;14.90;;;;;;;7.87;90.30;100353.75;5107161;28;20043;-41
2023/04/08 01:01:06;;;;;;;22.15;14.50;;;;;;;7.87;90.23;100340.47;5107777;28;20032;-41
2023/04/08 01:03:43;;;;;;;;;;;;;;;8.23;89.03;100363.34;5108833;28;20808;-40
2023/04/08 01:06:17;;;;;;;22.52;15.10;;;;;;;7.94;89.37;100349.28;5107518;28;20360;-43
2023/04/08 01:08:44;;;;;;;22.02;15.02;;;;;;;7.97;90.41;100364.03;5107592;28;20038;-43
2023/04/08 01:11:12;;;;;;;24.20;15.43;;;;;;;7.78;91.75;100354.91;5108002;28;20020;-41
2023/04/08 01:13:40;;;;;;;20.58;14.32;;;;;;;7.62;93.19;100356.84;5108105;28;20084;-40
2023/04/08 01:16:13;;;;;;;23.17;15.32;;;;;;;7.68;92.31;100341.94;5107112;28;20114;-41
2023/04/08 01:18:40;;;;;;;25.95;16.60;;;;;;;7.71;93.18;100365.47;5107570;28;20027;-41
2023/04/08 01:21:06;;;;;;;22.40;14.87;;;;;;;7.59;93.84;100367.81;5108041;28;20027;-42
2023/04/08 01:23:45;;;;;;;22.42;15.07;;;;;;;7.61;94.93;100363.13;5108163;28;20076;-42
2023/04/08 01:26:21;;;;;;;22.23;14.98;;;;;;;7.73;94.79;100367.94;5107828;28;20039;-41
2023/04/08 01:28:49;;;;;;;21.67;15.35;;;;;;;7.76;92.54;100362.22;5107368;28;20028;-41
2023/04/08 01:31:16;;;;;;;24.98;16.17;;;;;;;7.80;92.90;100368.78;5107669;28;20168;-40
2023/04/08 01:33:43;;;;;;;23.50;15.68;;;;;;;7.77;93.93;100375.31;5107500;28;20028;-40
2023/04/08 01:36:09;;;;;;;22.63;15.90;;;;;;;7.64;95.07;100365.44;5106835;28;20038;-40
2023/04/08 01:38:36;;;;;;;24.33;16.33;;;;;;;7.73;93.60;100370.59;5106824;28;20027;-42
2023/04/08 01:41:03;;;;;;;26.35;16.80;;;;;;;7.82;92.84;100372.06;5100665;28;20453;-41
2023/04/08 01:43:31;;;;;;;26.02;16.08;;;;;;;7.77;93.43;100372.66;5102422;27;20058;-40
2023/04/08 01:45:57;;;;;;;23.98;15.63;;;;;;;7.60;93.40;100352.72;5105589;28;20453;-44
2023/04/08 01:48:24;;;;;;;22.95;15.55;;;;;;;7.57;93.50;100348.63;5104580;27;20188;-39
2023/04/08 01:50:50;;;;;;;22.17;14.55;;;;;;;7.68;93.61;100368.50;5106277;28;20737;-40
2023/04/08 01:53:16;;;;;;;24.20;15.77;;;;;;;7.71;93.17;100360.16;5107942;28;20032;-40
2023/04/08 01:55:44;;;;;;;25.67;17.40;;;;;;;7.58;94.01;100371.50;5107356;28;20035;-40
2023/04/08 01:58:13;;;;;;;24.95;15.63;;;;;;;7.50;94.86;100369.00;5107556;28;20099;-39
2023/04/08 02:00:42;;;;;;;34.08;19.23;;;;;;;7.29;97.47;100382.25;5107844;28;20051;-39
2023/04/08 02:03:11;;;;;;;31.67;17.80;;;;;;;7.40;96.21;100387.06;5107685;28;20016;-40
2023/04/08 02:05:36;;;;;;;27.83;17.65;;;;;;;7.43;97.15;100397.28;5107714;28;20074;-39
2023/04/08 02:08:02;;;;;;;29.27;17.25;;;;;;;7.44;96.44;100386.47;5107573;28;20059;-40
2023/04/08 02:10:27;;;;;;;24.80;16.83;;;;;;;7.71;94.50;100381.41;5107536;28;20062;-41
2023/04/08 02:12:53;;;;;;;22.75;16.05;;;;;;;7.56;95.57;100394.75;5107295;28;20035;-40
2023/04/08 02:15:19;;;;;;;24.90;15.70;;;;;;;7.59;95.42;100391.72;5107635;28;20027;-41
2023/04/08 02:18:15;;;;;;;26.35;16.58;;;;;;;7.47;96.01;100374.66;5107539;28;20015;-39
2023/04/08 02:20:49;;;;;;;24.95;15.70;;;;;;;7.46;96.70;100388.94;5107632;28;20024;-40
2023/04/08 02:23:23;;;;;;;23.05;15.48;;;;;;;7.61;96.33;100392.34;5107253;28;20028;-41
2023/04/08 02:25:49;;;;;;;26.90;17.58;;;;;;;7.96;93.98;100388.94;5107213;28;20100;-39
2023/04/08 02:28:17;;;;;;;25.70;17.33;;;;;;;7.40;95.73;100364.00;5107181;28;20023;-41
2023/04/08 02:30:47;;;;;;;28.50;17.58;;;;;;;7.57;95.58;100383.13;5107337;28;20023;-40
2023/04/08 02:33:14;;;;;;;24.27;15.18;;;;;;;7.59;95.85;100391.72;5106986;28;20176;-40
2023/04/08 02:35:40;;;;;;;26.15;15.98;;;;;;;7.49;95.24;100380.59;5107100;28;20026;-40
2023/04/08 02:38:06;;;;;;;27.98;17.70;;;;;;;7.56;95.95;100400.06;5107183;28;20035;-40
2023/04/08 02:40:34;;;;;;;28.50;17.77;;;;;;;7.65;96.16;100404.22;5107307;28;20019;-40
2023/04/08 02:43:00;;;;;;;33.33;21.45;;;;;;;7.39;96.15;100409.28;5106934;28;20114;-39
2023/04/08 02:45:52;;;;;;;77.55;38.03;;;;;;;7.42;97.19;100403.63;5107050;28;20059;-40
2023/04/08 02:48:17;;;;;;;173.68;81.82;;;;;;;7.70;95.97;100403.63;5104714;27;20040;-40
2023/04/08 02:50:42;;;;;;;88.75;47.13;;;;;;;7.82;94.91;100398.63;5106241;28;20027;-39
2023/04/08 02:53:08;;;;;;;80.88;51.72;;;;;;;7.87;93.64;100398.88;5106893;28;20515;-41
2023/04/08 02:55:34;;;;;;;93.13;41.28;;;;;;;7.70;95.00;100410.78;5106818;28;20019;-41
2023/04/08 02:57:59;;;;;;;45.38;27.92;;;;;;;7.68;94.39;100412.81;5107005;28;20540;-40
2023/04/08 03:00:25;;;;;;;117.53;54.83;;;;;;;7.62;94.91;100401.97;5105953;28;20027;-39
2023/04/08 03:02:50;;;;;;;141.45;50.88;;;;;;;7.65;95.23;100406.88;5106688;28;20038;-40
2023/04/08 03:05:16;;;;;;;483.48;139.75;;;;;;;7.69;94.24;100412.63;5106304;27;20475;-40
2023/04/08 03:07:41;;;;;;;169.60;58.10;;;;;;;7.66;94.29;100420.97;5106152;28;20460;-39
2023/04/08 03:10:07;;;;;;;334.05;96.43;;;;;;;7.52;95.02;100424.50;5106389;28;20128;-40
2023/04/08 03:12:33;;;;;;;416.98;112.57;;;;;;;7.36;95.66;100422.94;5106503;28;20034;-39
2023/04/08 03:14:59;;;;;;;572.15;156.13;;;;;;;7.48;95.30;100418.78;5106713;28;20031;-40
2023/04/08 03:17:24;;;;;;;514.50;147.68;;;;;;;7.61;95.03;100421.53;5106506;28;20510;-39
2023/04/08 03:19:50;;;;;;;313.83;96.78;;;;;;;7.77;93.44;100411.69;5106074;28;20028;-41
2023/04/08 03:22:15;;;;;;;282.73;85.47;;;;;;;7.62;93.69;100420.53;5106295;28;20544;-42
2023/04/08 03:24:40;;;;;;;280.27;95.32;;;;;;;7.51;94.20;100412.25;5106367;28;20032;-42
2023/04/08 03:27:07;;;;;;;134.93;58.05;;;;;;;7.54;94.26;100418.03;5106336;28;20114;-41
2023/04/08 03:29:32;;;;;;;50.83;28.50;;;;;;;7.48;93.87;100417.94;5106431;28;20606;-42
2023/04/08 03:31:58;;;;;;;31.30;21.23;;;;;;;7.59;94.08;100431.53;5105121;28;20507;-42
2023/04/08 03:34:23;;;;;;;51.97;31.00;;;;;;;7.41;94.07;100418.69;5105476;28;20028;-41
2023/04/08 03:36:49;;;;;;;63.92;34.90;;;;;;;7.42;94.67;100440.75;5137439;27;20111;-41
2023/04/08 03:39:14;;;;;;;127.10;51.00;;;;;;;7.61;93.58;100440.13;5104378;28;20036;-41
2023/04/08 03:41:40;;;;;;;113.05;59.00;;;;;;;7.73;93.38;100431.66;5099037;28;20741;-41
2023/04/08 03:44:05;;;;;;;68.85;41.38;;;;;;;7.56;93.32;100439.88;5103258;28;20028;-41
2023/04/08 03:46:31;;;;;;;154.20;82.93;;;;;;;7.57;92.99;100443.34;5105193;28;20050;-42
2023/04/08 03:48:56;;;;;;;208.35;117.45;;;;;;;7.47;94.04;100433.03;5106124;28;20496;-42
2023/04/08 03:51:21;;;;;;;143.50;106.70;;;;;;;7.60;92.82;100438.50;5105522;28;20031;-40
2023/04/08 03:53:48;;;;;;;74.25;62.45;;;;;;;7.65;92.46;100437.91;5105272;28;20118;-39
2023/04/08 03:56:13;;;;;;;32.17;24.65;;;;;;;7.74;91.97;100434.09;5105896;28;20492;-41
2023/04/08 03:58:39;;;;;;;31.90;22.33;;;;;;;7.90;91.09;100429.53;5105308;28;20027;-41
2023/04/08 04:01:04;;;;;;;32.53;21.30;;;;;;;7.68;91.56;100428.75;5105826;28;20557;-40
2023/04/08 04:03:30;;;;;;;29.80;19.60;;;;;;;7.65;92.10;100433.41;5106294;28;20038;-40
2023/04/08 04:05:56;;;;;;;26.60;18.23;;;;;;;7.69;92.21;100430.41;5105100;28;20474;-42
2023/04/08 04:08:21;;;;;;;49.13;33.63;;;;;;;7.65;91.93;100436.06;5104323;28;20046;-40
2023/04/08 04:10:47;;;;;;;58.22;36.53;;;;;;;7.78;91.34;100439.84;5104182;28;20032;-40
2023/04/08 04:13:12;;;;;;;57.70;36.45;;;;;;;7.81;90.67;100429.69;5104352;28;20078;-41
2023/04/08 04:15:41;;;;;;;88.88;65.35;;;;;;;7.72;90.97;100436.13;5104560;28;20424;-40
2023/04/08 04:18:06;;;;;;;64.18;42.80;;;;;;;7.82;90.42;100441.09;5105964;28;20063;-40
2023/04/08 04:20:32;;;;;;;79.30;48.55;;;;;;;7.80;89.96;100443.94;5104714;28;20032;-40
2023/04/08 04:22:57;;;;;;;73.25;50.85;;;;;;;7.68;90.61;100450.78;5105056;28;20412;-41
2023/04/08 04:25:23;;;;;;;63.10;47.08;;;;;;;7.72;90.75;100445.94;5105863;28;20633;-41
2023/04/08 04:27:49;;;;;;;32.40;22.85;;;;;;;7.80;90.16;100451.91;5104280;28;20027;-41
2023/04/08 04:30:15;;;;;;;39.90;28.00;;;;;;;8.08;88.42;100455.63;5103986;28;20051;-40
2023/04/08 04:32:42;;;;;;;43.58;31.70;;;;;;;7.93;89.32;100464.50;5105133;28;20023;-41
2023/04/08 04:35:11;;;;;;;70.80;46.13;;;;;;;7.88;89.11;100450.97;5107872;28;20050;-41
2023/04/08 04:37:36;;;;;;;113.78;68.60;;;;;;;7.85;88.76;100446.88;5108415;27;20051;-41
2023/04/08 04:40:06;;;;;;;69.03;44.35;;;;;;;8.23;88.08;100454.53;5108852;28;20028;-40
2023/04/08 04:42:32;;;;;;;48.55;31.25;;;;;;;8.10;88.53;100457.06;5108833;28;20027;-42
2023/04/08 04:44:57;;;;;;;54.33;37.47;;;;;;;7.83;88.33;100461.34;5109164;28;20346;-41
2023/04/08 04:47:24;;;;;;;47.65;33.15;;;;;;;7.72;90.08;100459.19;5108547;28;20020;-40
2023/04/08 04:49:49;;;;;;;49.00;32.03;;;;;;;8.07;88.07;100470.75;5108274;28;20035;-40
2023/04/08 04:52:15;;;;;;;34.08;23.50;;;;;;;7.88;88.53;100461.59;5109434;28;20027;-40
2023/04/08 04:54:40;;;;;;;46.10;28.70;;;;;;;7.93;88.92;100469.81;5109033;28;20036;-39
2023/04/08 04:57:06;;;;;;;35.15;22.95;;;;;;;7.87;89.98;100470.59;5108849;28;20424;-40
2023/04/08 04:59:31;;;;;;;54.75;33.35;;;;;;;7.81;88.96;100469.50;5106977;28;20419;-40
2023/04/08 05:01:57;;;;;;;43.97;27.75;;;;;;;7.96;87.53;100452.66;5107540;27;20042;-39
2023/04/08 05:04:23;;;;;;;64.70;36.17;;;;;;;7.80;88.18;100449.25;5107517;28;20024;-42
2023/04/08 05:06:49;;;;;;;84.68;42.75;;;;;;;7.85;88.63;100472.59;5108599;28;20138;-42
2023/04/08 05:09:14;;;;;;;72.88;37.72;;;;;;;7.93;88.20;100464.50;5108489;28;20115;-41
2023/04/08 05:11:40;;;;;;;63.15;34.20;;;;;;;7.78;89.77;100471.72;5108882;28;20407;-40
2023/04/08 05:14:06;;;;;;;41.03;25.77;;;;;;;8.01;88.33;100468.88;5108668;28;20457;-40
2023/04/08 05:16:32;;;;;;;45.38;26.88;;;;;;;8.10;87.91;100464.22;5108409;28;20028;-40
2023/04/08 05:18:57;;;;;;;51.70;29.38;;;;;;;8.31;86.57;100469.47;5108611;28;20511;-41
2023/04/08 05:21:23;;;;;;;42.85;25.08;;;;;;;8.37;86.18;100468.69;5107158;28;20034;-43
2023/04/08 05:23:51;;;;;;;44.67;28.15;;;;;;;8.65;84.69;100474.03;5108008;28;20035;-39
2023/04/08 05:26:17;;;;;;;43.95;26.73;;;;;;;8.59;85.74;100468.69;5108462;28;20043;-40
2023/04/08 05:28:43;;;;;;;30.08;19.42;;;;;;;8.70;84.70;100473.44;5108069;28;20032;-40
2023/04/08 05:31:10;;;;;;;23.92;16.58;;;;;;;8.68;83.65;100467.47;5108109;28;20145;-41
2023/04/08 05:33:36;;;;;;;47.85;30.33;;;;;;;8.43;85.86;100477.78;5108047;28;20119;-40
2023/04/08 05:36:01;;;;;;;35.28;22.13;;;;;;;8.75;82.67;100465.69;5141267;27;20027;-41
2023/04/08 05:38:27;;;;;;;34.25;20.48;;;;;;;8.77;83.11;100471.63;5108151;28;20035;-40
2023/04/08 05:40:52;;;;;;;31.42;20.45;;;;;;;8.57;83.91;100466.19;5108609;28;20110;-44
2023/04/08 05:43:17;;;;;;;26.98;17.30;;;;;;;8.38;84.70;100473.00;5105696;28;20035;-40
2023/04/08 05:45:43;;;;;;;32.40;21.27;;;;;;;8.70;83.00;100472.63;5094483;28;20028;-42
2023/04/08 05:48:08;;;;;;;36.42;25.60;;;;;;;8.88;80.83;100488.06;5087717;28;20389;-40
2023/04/08 05:50:34;;;;;;;26.33;17.50;;;;;;;8.92;81.98;100489.31;5087681;28;20024;-42
2023/04/08 05:53:00;;;;;;;40.28;23.45;;;;;;;9.11;79.74;100493.88;5087908;28;20031;-42
2023/04/08 05:55:25;;;;;;;27.65;20.30;;;;;;;8.93;78.98;100496.25;5087420;28;20020;-40
2023/04/08 05:57:51;;;;;;;26.75;18.88;;;;;;;8.80;80.31;100487.19;5087578;28;20036;-41
2023/04/08 06:00:16;;;;;;;28.20;18.00;;;;;;;8.72;80.16;100487.34;5087556;28;20035;-40
2023/04/08 06:02:42;;;;;;;59.80;36.38;;;;;;;9.01;79.15;100488.09;5087469;28;20036;-39
2023/04/08 06:05:08;;;;;;;40.10;25.23;;;;;;;8.96;79.87;100480.72;5087279;28;20395;-41
2023/04/08 06:07:33;;;;;;;26.92;18.90;;;;;;;9.48;77.63;100491.75;5102645;28;20622;-40
2023/04/08 06:09:59;;;;;;;34.03;20.50;;;;;;;9.47;77.29;100486.63;5089896;28;20067;-40
2023/04/08 06:12:24;;;;;;;33.60;21.38;;;;;;;9.37;77.83;100481.69;5105485;28;20089;-38
2023/04/08 06:14:54;;;;;;;35.45;23.30;;;;;;;9.83;75.33;100478.31;5106705;28;20514;-40
2023/04/08 06:17:20;;;;;;;25.48;17.05;;;;;;;9.76;74.96;100490.78;5107438;28;20028;-39
2023/04/08 06:19:45;;;;;;;31.10;19.27;;;;;;;9.97;73.75;100497.75;5107197;28;20425;-40
2023/04/08 06:22:10;;;;;;;30.92;19.02;;;;;;;10.10;74.49;100491.63;5106948;28;20827;-38
2023/04/08 06:24:36;;;;;;;28.10;17.73;;;;;;;10.02;76.50;100495.31;5107674;28;20024;-40
2023/04/08 06:27:01;;;;;;;29.92;17.25;;;;;;;10.36;75.56;100499.66;5106893;28;20028;-40
2023/04/08 06:29:28;;;;;;;38.53;18.48;;;;;;;10.35;73.54;100500.66;5107550;28;20122;-40
2023/04/08 06:31:54;;;;;;;30.58;17.35;;;;;;;10.36;74.10;100488.97;5107363;28;20116;-43
2023/04/08 06:34:20;;;;;;;28.10;17.92;;;;;;;10.37;74.05;100495.13;5106890;28;20085;-39
2023/04/08 06:36:45;;;;;;;30.30;18.98;;;;;;;10.43;76.11;100495.09;5107566;28;20032;-40
2023/04/08 06:39:11;;;;;;;37.47;18.70;;;;;;;10.33;74.82;100484.06;5107040;28;20027;-40
2023/04/08 06:41:36;;;;;;;28.80;18.88;;;;;;;10.36;73.50;100496.97;5107047;28;20098;-39
2023/04/08 06:44:02;;;;;;;27.02;17.63;;;;;;;10.21;74.51;100499.81;5106988;28;20028;-39
2023/04/08 06:46:27;;;;;;;32.38;17.95;;;;;;;10.54;75.86;100501.69;5105568;28;20032;-39
2023/04/08 06:48:53;;;;;;;28.80;17.65;;;;;;;10.73;73.17;100508.00;5107030;28;20527;-39
2023/04/08 06:51:18;;;;;;;28.02;17.52;;;;;;;10.53;74.15;100493.88;5106804;28;20117;-40
2023/04/08 06:53:43;;;;;;;27.48;17.67;;;;;;;10.49;74.38;100498.00;5107141;28;20085;-42
2023/04/08 06:56:10;;;;;;;25.10;17.02;;;;;;;10.98;73.82;100499.31;5106062;28;20024;-40
2023/04/08 06:58:35;;;;;;;47.70;36.35;;;;;;;11.12;71.72;100495.56;5106910;28;20103;-39
2023/04/08 07:01:02;;;;;;;41.00;33.22;;;;;;;10.94;73.10;100498.09;5106678;28;20478;-40
2023/04/08 07:03:27;;;;;;;30.02;21.42;;;;;;;11.14;71.71;100504.16;5106827;28;20023;-40
2023/04/08 07:05:53;;;;;;;30.73;20.75;;;;;;;11.13;71.74;100499.84;5106642;28;20036;-40
2023/04/08 07:08:18;;;;;;;27.73;17.27;;;;;;;11.23;71.36;100508.22;5106683;28;20032;-40
2023/04/08 07:10:43;;;;;;;25.65;17.83;;;;;;;11.00;73.38;100508.72;5106611;28;20477;-39
2023/04/08 07:13:09;;;;;;;27.92;18.95;;;;;;;10.95;74.13;100497.03;5106748;28;20020;-39
2023/04/08 07:15:35;;;;;;;28.25;19.02;;;;;;;10.88;73.78;100501.59;5106820;28;20087;-40
2023/04/08 07:18:01;;;;;;;30.80;19.45;;;;;;;10.85;71.69;100509.00;5106454;28;20027;-39
2023/04/08 07:20:27;;;;;;;44.97;22.23;;;;;;;10.85;71.06;100511.66;5106485;28;20023;-40
2023/04/08 07:22:52;;;;;;;47.17;26.25;;;;;;;11.15;70.82;100504.97;5106189;28;20023;-40
2023/04/08 07:25:18;;;;;;;31.63;19.67;;;;;;;11.41;71.45;100504.03;5106992;28;20074;-39
2023/04/08 07:27:43;;;;;;;32.58;20.95;;;;;;;11.49;70.25;100511.81;5106324;28;20071;-40
2023/04/08 07:30:09;;;;;;;26.63;17.85;;;;;;;11.34;70.78;100508.56;5106454;28;20419;-39
2023/04/08 07:32:35;;;;;;;30.17;18.67;;;;;;;11.15;71.21;100511.13;5106344;28;20039;-40
2023/04/08 07:35:01;;;;;;;38.05;25.10;;;;;;;11.36;71.07;100493.16;5106189;28;20460;-39
2023/04/08 07:37:26;;;;;;;31.95;20.90;;;;;;;11.82;67.01;100505.44;5106383;28;20508;-40
2023/04/08 07:39:52;;;;;;;31.92;20.50;;;;;;;12.20;67.53;100500.03;5106386;28;20389;-37
2023/04/08 07:42:17;;;;;;;48.58;30.60;;;;;;;11.96;66.98;100493.66;5106682;28;20035;-40
2023/04/08 07:44:44;;;;;;;23.08;16.95;;;;;;;11.81;67.67;100503.78;5106282;28;20094;-40
2023/04/08 07:47:10;;;;;;;28.85;18.80;;;;;;;11.74;69.05;100511.03;5106568;28;20028;-41
2023/04/08 07:49:37;;;;;;;181.57;69.97;;;;;;;11.98;67.89;100502.25;5106081;28;20024;-41
2023/04/08 07:52:03;;;;;;;32.78;20.23;;;;;;;12.15;64.69;100510.56;5106810;28;20062;-40
2023/04/08 07:54:30;;;;;;;28.02;19.23;;;;;;;12.13;66.86;100496.59;5106250;28;20090;-40
2023/04/08 07:56:56;;;;;;;27.30;17.08;;;;;;;11.93;68.89;100507.47;5106453;28;20059;-40
2023/04/08 07:59:21;;;;;;;28.33;20.08;;;;;;;12.25;66.53;100504.72;5106042;28;20028;-42
2023/04/08 08:01:47;;;;;;;34.13;25.23;;;;;;;12.27;64.09;100510.66;5106226;28;20026;-39
2023/04/08 08:04:12;;;;;;;25.50;18.48;;;;;;;12.73;63.40;100501.38;5106268;28;20034;-40
2023/04/08 08:06:38;;;;;;;25.70;17.63;;;;;;;12.92;59.43;100512.09;5106966;28;20075;-40
2023/04/08 08:09:04;;;;;;;33.65;22.83;;;;;;;13.14;58.89;100507.91;5110252;27;20031;-39
2023/04/08 08:11:29;;;;;;;23.00;16.92;;;;;;;13.00;60.70;100501.09;5110016;28;20028;-39
2023/04/08 08:13:55;;;;;;;27.13;17.75;;;;;;;12.94;61.68;100508.16;5110157;28;20046;-38
2023/04/08 08:16:21;;;;;;;24.67;17.73;;;;;;;13.02;60.68;100509.72;5109816;28;20055;-39
2023/04/08 08:18:47;;;;;;;24.45;16.83;;;;;;;13.11;61.65;100508.34;5110028;28;20082;-40
2023/04/08 08:21:12;;;;;;;24.90;16.35;;;;;;;13.09;59.26;100510.44;5109708;28;20027;-39
2023/04/08 08:23:38;;;;;;;28.17;17.67;;;;;;;13.27;59.54;100502.38;5109596;28;20024;-39
2023/04/08 08:26:05;;;;;;;27.60;19.85;;;;;;;13.48;56.07;100513.69;5109647;28;20038;-40
2023/04/08 08:28:32;;;;;;;26.92;18.90;;;;;;;13.40;54.82;100500.59;5109650;28;20031;-39
2023/04/08 08:30:58;;;;;;;26.52;19.13;;;;;;;13.87;53.82;100511.47;5109800;28;20124;-40
2023/04/08 08:33:24;;;;;;;27.05;19.27;;;;;;;13.60;53.97;100511.88;5109588;27;20078;-40
2023/04/08 08:35:50;;;;;;;21.83;16.42;;;;;;;13.58;53.70;100508.59;5109644;28;20036;-41
2023/04/08 08:38:16;;;;;;;21.98;16.63;;;;;;;13.77;55.09;100511.22;5109458;28;20034;-39
2023/04/08 08:40:43;;;;;;;28.08;19.50;;;;;;;13.96;52.46;100506.63;5109378;28;20853;-39
2023/04/08 08:43:09;;;;;;;23.70;16.10;;;;;;;13.95;56.21;100503.09;5109499;28;20412;-40
2023/04/08 08:45:44;;;;;;;24.05;16.50;;;;;;;13.96;55.93;100504.75;5109289;28;20039;-40
2023/04/08 08:48:09;;;;;;;58.35;35.17;;;;;;;14.29;56.82;100507.94;5109220;28;21160;-39
2023/04/08 08:50:35;;;;;;;29.48;19.42;;;;;;;14.09;58.87;100505.59;5109139;28;20031;-38
2023/04/08 08:53:01;;;;;;;23.48;16.23;;;;;;;14.06;58.82;100498.81;5109069;28;20031;-40
2023/04/08 08:55:30;;;;;;;50.33;28.67;;;;;;;14.10;57.00;100494.63;5109130;28;20686;-39
2023/04/08 08:57:55;;;;;;;26.13;19.00;;;;;;;14.37;57.51;100491.50;5108872;28;20039;-39
2023/04/08 09:00:31;;;;;;;66.30;39.42;;;;;;;14.85;56.55;100493.94;5108905;28;20031;-39
2023/04/08 09:03:15;;;;;;;33.97;23.58;;;;;;;14.99;55.15;100499.03;5109224;28;20024;-38
2023/04/08 09:05:52;;;;;;;27.00;19.00;;;;;;;14.92;56.27;100474.19;5108787;28;20130;-37
2023/04/08 09:08:36;;;;;;;28.42;21.40;;;;;;;14.76;54.41;100497.22;5109184;28;20044;-41
2023/04/08 09:11:13;;;;;;;31.80;21.67;;;;;;;14.14;56.58;100486.91;5108859;28;20539;-40
2023/04/08 09:13:39;;;;;;;53.33;29.23;;;;;;;14.83;56.79;100498.72;5108752;28;20598;-39
2023/04/08 09:16:08;;;;;;;61.05;33.80;;;;;;;14.81;55.96;100484.72;5109033;28;20356;-39
2023/04/08 09:18:34;;;;;;;22.52;16.05;;;;;;;14.73;54.30;100501.19;5107978;27;20088;-40
2023/04/08 09:21:01;;;;;;;69.20;37.63;;;;;;;14.67;56.03;100504.81;5107505;28;20032;-40
2023/04/08 09:23:49;;;;;;;27.02;17.67;;;;;;;15.13;52.69;100491.53;5107681;28;20507;-39
2023/04/08 09:26:23;;;;;;;121.43;55.13;;;;;;;15.08;54.39;100494.94;5107184;28;20023;-39
2023/04/08 09:29:07;;;;;;;22.15;16.23;;;;;;;15.22;55.54;100482.84;5107052;28;20028;-39
2023/04/08 09:31:40;;;;;;;21.73;14.80;;;;;;;14.95;52.78;100492.50;5107581;27;20032;-40
2023/04/08 09:34:18;;;;;;;28.98;25.45;;;;;;;15.40;47.78;100495.25;5107211;28;20079;-40
2023/04/08 09:36:44;;;;;;;27.80;19.90;;;;;;;15.82;51.92;100486.09;5107361;28;20027;-43
2023/04/08 09:39:10;;;;;;;104.35;57.03;;;;;;;15.70;52.12;100490.69;5106677;28;20519;-41
2023/04/08 09:41:37;;;;;;;103.25;62.25;;;;;;;15.36;52.25;100466.44;5107540;28;20034;-41
2023/04/08 09:44:05;;;;;;;20.35;16.75;;;;;;;15.66;50.91;100483.09;5106907;27;20082;-41
2023/04/08 09:46:38;;;;;;;22.23;19.27;;;;;;;15.59;51.02;100458.25;5107250;28;20149;-41
2023/04/08 09:49:12;;;;;;;16.17;11.90;;;;;;;15.62;50.08;100483.84;5107419;28;20147;-40
2023/04/08 09:52:06;;;;;;;18.27;13.80;;;;;;;15.41;50.33;100488.03;5107445;27;20488;-41
2023/04/08 09:54:56;;;;;;;15.52;11.70;;;;;;;15.98;48.43;100485.28;5106306;28;20027;-42
2023/04/08 09:57:32;;;;;;;14.55;11.80;;;;;;;16.25;47.49;100490.00;5107595;28;20030;-40
2023/04/08 10:00:18;;;;;;;15.15;11.50;;;;;;;16.12;46.78;100479.56;5107203;28;20110;-41
2023/04/08 10:02:46;;;;;;;15.77;10.90;;;;;;;16.23;48.91;100484.88;5106505;28;20051;-40
2023/04/08 10:05:13;;;;;;;18.13;15.55;;;;;;;15.94;48.18;100483.34;5107658;28;20149;-39
2023/04/08 10:07:40;;;;;;;16.02;11.20;;;;;;;15.97;47.11;100480.16;5106714;28;20036;-40
2023/04/08 10:10:09;;;;;;;17.95;13.63;;;;;;;16.06;48.98;100468.75;5107076;28;20019;-42
2023/04/08 10:12:35;;;;;;;17.23;13.40;;;;;;;16.55;46.76;100453.81;5106493;28;20173;-41
2023/04/08 10:15:25;;;;;;;21.95;18.00;;;;;;;17.68;46.70;100470.22;5107125;28;20536;-40
2023/04/08 10:18:06;;;;;;;18.45;13.18;;;;;;;17.05;46.08;100469.03;5106091;28;20055;-41
2023/04/08 10:20:35;;;;;;;13.95;10.25;;;;;;;17.40;47.44;100467.78;5106545;28;20534;-41
2023/04/08 10:23:01;;;;;;;15.65;12.07;;;;;;;17.21;45.40;100467.31;5106827;28;20031;-40
2023/04/08 10:25:37;;;;;;;127.75;70.78;;;;;;;17.17;43.51;100450.84;5107164;28;20024;-41
2023/04/08 10:28:16;;;;;;;78.20;67.60;;;;;;;17.81;46.00;100451.97;5106584;28;20088;-40
2023/04/08 10:30:42;;;;;;;117.90;106.38;;;;;;;17.73;44.42;100455.13;5106413;28;20034;-40
2023/04/08 10:33:15;;;;;;;19.40;14.15;;;;;;;18.11;46.19;100453.31;5106877;28;20023;-42
2023/04/08 10:36:09;;;;;;;18.60;11.13;;;;;;;16.84;46.86;100452.63;5106419;28;20027;-41
2023/04/08 10:38:34;;;;;;;15.15;11.32;;;;;;;17.30;46.63;100449.59;5096617;28;20171;-41
2023/04/08 10:41:01;;;;;;;19.42;16.02;;;;;;;17.99;44.13;100438.09;5106168;28;20076;-40
2023/04/08 10:43:31;;;;;;;13.50;10.95;;;;;;;18.54;45.70;100438.72;5101396;28;20614;-41
2023/04/08 10:45:57;;;;;;;15.18;10.50;;;;;;;17.98;44.35;100450.00;5088099;27;20487;-40
2023/04/08 10:48:24;;;;;;;14.10;10.38;;;;;;;18.25;44.02;100439.09;5085669;28;20547;-41
2023/04/08 10:50:53;;;;;;;12.55;10.55;;;;;;;18.10;42.79;100446.28;5086219;28;20032;-42
2023/04/08 10:53:32;;;;;;;13.35;10.13;;;;;;;18.66;42.22;100439.31;5086229;28;20063;-39
2023/04/08 10:56:13;;;;;;;13.15;10.18;;;;;;;18.42;44.35;100433.50;5086571;28;20120;-41
2023/04/08 10:58:55;;;;;;;13.85;10.15;;;;;;;18.69;42.83;100432.56;5086415;28;20083;-40
2023/04/08 11:01:21;;;;;;;17.52;10.10;;;;;;;17.79;44.00;100435.22;5086332;28;20040;-42
2023/04/08 11:03:47;;;;;;;13.27;9.95;;;;;;;18.43;42.71;100426.25;5086017;28;20085;-40
2023/04/08 11:06:13;;;;;;;13.15;9.90;;;;;;;18.52;43.16;100423.84;5085582;28;20036;-41
2023/04/08 11:08:39;;;;;;;11.98;10.35;;;;;;;18.48;40.44;100421.66;5085351;28;20024;-41
2023/04/08 11:11:07;;;;;;;11.77;8.32;;;;;;;17.90;40.40;100431.59;5086216;28;20036;-41
2023/04/08 11:13:35;;;;;;;9.98;8.10;;;;;;;17.84;39.41;100401.03;5086208;28;20024;-40
2023/04/08 11:16:03;;;;;;;9.95;7.72;;;;;;;19.02;39.91;100408.91;5085781;28;20581;-41